sensor_id;sensor_type;location;lat;lon;timestamp;P1;durP1;ratioP1;P2;durP2;ratioP2
78820;SDS011;68171;13.882;99.692;2023-12-20T00:00:23;26.87;;;18.27;;
78820;SDS011;68171;13.882;99.692;2023-12-20T00:01:29;30.45;;;19.70;;
78820;SDS011;68171;13.882;99.692;2023-12-20T00:02:35;26.15;;;19.38;;
78820;SDS011;68171;13.882;99.692;2023-12-20T00:03:42;21.08;;;18.30;;
78820;SDS011;68171;13.882;99.692;2023-12-20T00:04:47;24.83;;;18.88;;
78820;SDS011;68171;13.882;99.692;2023-12-20T00:05:54;30.58;;;17.98;;
78820;SDS011;68171;13.882;99.692;2023-12-20T00:06:59;25.80;;;19.00;;
78820;SDS011;68171;13.882;99.692;2023-12-20T00:08:06;27.63;;;19.33;;
78820;SDS011;68171;13.882;99.692;2023-12-20T00:09:13;25.23;;;18.67;;
78820;SDS011;68171;13.882;99.692;2023-12-20T00:10:20;24.50;;;19.60;;
78820;SDS011;68171;13.882;99.692;2023-12-20T00:11:26;25.73;;;19.13;;
78820;SDS011;68171;13.882;99.692;2023-12-20T00:12:32;28.55;;;19.63;;
78820;SDS011;68171;13.882;99.692;2023-12-20T00:13:38;26.25;;;18.65;;
78820;SDS011;68171;13.882;99.692;2023-12-20T00:14:44;24.77;;;18.25;;
78820;SDS011;68171;13.882;99.692;2023-12-20T00:15:50;23.48;;;18.98;;
78820;SDS011;68171;13.882;99.692;2023-12-20T00:16:56;24.55;;;18.67;;
78820;SDS011;68171;13.882;99.692;2023-12-20T00:18:01;28.42;;;19.67;;
78820;SDS011;68171;13.882;99.692;2023-12-20T00:19:08;25.02;;;18.88;;
78820;SDS011;68171;13.882;99.692;2023-12-20T00:20:14;23.40;;;19.30;;
78820;SDS011;68171;13.882;99.692;2023-12-20T00:21:21;23.88;;;19.77;;
78820;SDS011;68171;13.882;99.692;2023-12-20T00:22:26;28.83;;;20.17;;
78820;SDS011;68171;13.882;99.692;2023-12-20T00:23:33;25.90;;;19.45;;
78820;SDS011;68171;13.882;99.692;2023-12-20T00:24:40;25.08;;;19.80;;
78820;SDS011;68171;13.882;99.692;2023-12-20T00:25:46;27.40;;;19.90;;
78820;SDS011;68171;13.882;99.692;2023-12-20T00:26:51;25.77;;;20.45;;
78820;SDS011;68171;13.882;99.692;2023-12-20T00:27:58;24.65;;;18.90;;
78820;SDS011;68171;13.882;99.692;2023-12-20T00:29:03;26.88;;;20.02;;
78820;SDS011;68171;13.882;99.692;2023-12-20T00:30:10;26.88;;;21.10;;
78820;SDS011;68171;13.882;99.692;2023-12-20T00:31:16;29.85;;;20.85;;
78820;SDS011;68171;13.882;99.692;2023-12-20T00:32:21;31.42;;;20.67;;
78820;SDS011;68171;13.882;99.692;2023-12-20T00:33:28;24.37;;;18.23;;
78820;SDS011;68171;13.882;99.692;2023-12-20T00:34:33;32.05;;;20.85;;
78820;SDS011;68171;13.882;99.692;2023-12-20T00:35:40;28.05;;;20.60;;
78820;SDS011;68171;13.882;99.692;2023-12-20T00:36:45;30.25;;;22.02;;
78820;SDS011;68171;13.882;99.692;2023-12-20T00:37:52;30.17;;;23.00;;
78820;SDS011;68171;13.882;99.692;2023-12-20T00:38:57;31.83;;;21.25;;
78820;SDS011;68171;13.882;99.692;2023-12-20T00:40:06;27.80;;;20.65;;
78820;SDS011;68171;13.882;99.692;2023-12-20T00:41:12;30.63;;;21.67;;
78820;SDS011;68171;13.882;99.692;2023-12-20T00:42:19;32.97;;;23.35;;
78820;SDS011;68171;13.882;99.692;2023-12-20T00:43:24;28.48;;;23.58;;
78820;SDS011;68171;13.882;99.692;2023-12-20T00:44:31;29.80;;;21.43;;
78820;SDS011;68171;13.882;99.692;2023-12-20T00:45:36;25.90;;;21.52;;
78820;SDS011;68171;13.882;99.692;2023-12-20T00:46:43;30.25;;;21.73;;
78820;SDS011;68171;13.882;99.692;2023-12-20T00:47:48;28.95;;;20.25;;
78820;SDS011;68171;13.882;99.692;2023-12-20T00:48:55;31.30;;;21.13;;
78820;SDS011;68171;13.882;99.692;2023-12-20T00:50:00;28.38;;;19.98;;
78820;SDS011;68171;13.882;99.692;2023-12-20T00:51:07;25.45;;;18.65;;
78820;SDS011;68171;13.882;99.692;2023-12-20T00:52:12;27.50;;;19.52;;
78820;SDS011;68171;13.882;99.692;2023-12-20T00:53:20;30.65;;;20.00;;
78820;SDS011;68171;13.882;99.692;2023-12-20T00:54:26;23.15;;;18.40;;
78820;SDS011;68171;13.882;99.692;2023-12-20T00:55:35;25.63;;;18.83;;
78820;SDS011;68171;13.882;99.692;2023-12-20T00:56:41;28.77;;;20.25;;
78820;SDS011;68171;13.882;99.692;2023-12-20T00:57:47;24.63;;;18.35;;
78820;SDS011;68171;13.882;99.692;2023-12-20T00:58:53;31.33;;;21.33;;
78820;SDS011;68171;13.882;99.692;2023-12-20T00:59:59;23.92;;;20.08;;
78820;SDS011;68171;13.882;99.692;2023-12-20T01:01:04;31.80;;;19.88;;
78820;SDS011;68171;13.882;99.692;2023-12-20T01:02:11;25.45;;;18.65;;
78820;SDS011;68171;13.882;99.692;2023-12-20T01:03:17;25.40;;;19.45;;
78820;SDS011;68171;13.882;99.692;2023-12-20T01:04:23;25.10;;;19.88;;
78820;SDS011;68171;13.882;99.692;2023-12-20T01:05:28;24.77;;;18.08;;
78820;SDS011;68171;13.882;99.692;2023-12-20T01:06:35;24.60;;;18.20;;
78820;SDS011;68171;13.882;99.692;2023-12-20T01:07:41;25.50;;;18.65;;
78820;SDS011;68171;13.882;99.692;2023-12-20T01:08:48;26.60;;;18.40;;
78820;SDS011;68171;13.882;99.692;2023-12-20T01:09:53;27.00;;;17.58;;
78820;SDS011;68171;13.882;99.692;2023-12-20T01:11:01;27.23;;;18.40;;
78820;SDS011;68171;13.882;99.692;2023-12-20T01:12:08;24.05;;;16.85;;
78820;SDS011;68171;13.882;99.692;2023-12-20T01:13:15;25.23;;;17.33;;
78820;SDS011;68171;13.882;99.692;2023-12-20T01:14:20;33.33;;;19.13;;
78820;SDS011;68171;13.882;99.692;2023-12-20T01:15:27;26.48;;;17.33;;
78820;SDS011;68171;13.882;99.692;2023-12-20T01:16:32;28.00;;;20.52;;
78820;SDS011;68171;13.882;99.692;2023-12-20T01:17:39;27.77;;;18.87;;
78820;SDS011;68171;13.882;99.692;2023-12-20T01:18:45;24.77;;;18.58;;
78820;SDS011;68171;13.882;99.692;2023-12-20T01:19:51;25.63;;;18.77;;
78820;SDS011;68171;13.882;99.692;2023-12-20T01:20:58;26.60;;;19.90;;
78820;SDS011;68171;13.882;99.692;2023-12-20T01:22:08;25.13;;;18.95;;
78820;SDS011;68171;13.882;99.692;2023-12-20T01:23:13;24.92;;;18.20;;
78820;SDS011;68171;13.882;99.692;2023-12-20T01:24:20;24.35;;;18.38;;
78820;SDS011;68171;13.882;99.692;2023-12-20T01:25:25;26.55;;;19.23;;
78820;SDS011;68171;13.882;99.692;2023-12-20T01:26:32;28.77;;;20.00;;
78820;SDS011;68171;13.882;99.692;2023-12-20T01:27:39;28.90;;;19.17;;
78820;SDS011;68171;13.882;99.692;2023-12-20T01:28:45;29.77;;;19.60;;
78820;SDS011;68171;13.882;99.692;2023-12-20T01:29:51;25.58;;;20.52;;
78820;SDS011;68171;13.882;99.692;2023-12-20T01:30:57;24.25;;;17.80;;
78820;SDS011;68171;13.882;99.692;2023-12-20T01:32:04;22.55;;;16.77;;
78820;SDS011;68171;13.882;99.692;2023-12-20T01:33:10;26.73;;;19.02;;
78820;SDS011;68171;13.882;99.692;2023-12-20T01:34:16;22.77;;;16.15;;
78820;SDS011;68171;13.882;99.692;2023-12-20T01:35:22;24.60;;;16.30;;
78820;SDS011;68171;13.882;99.692;2023-12-20T01:36:28;28.60;;;18.52;;
78820;SDS011;68171;13.882;99.692;2023-12-20T01:37:34;25.15;;;15.73;;
78820;SDS011;68171;13.882;99.692;2023-12-20T01:38:41;27.90;;;15.63;;
78820;SDS011;68171;13.882;99.692;2023-12-20T01:39:46;28.07;;;16.73;;
78820;SDS011;68171;13.882;99.692;2023-12-20T01:40:53;25.92;;;15.73;;
78820;SDS011;68171;13.882;99.692;2023-12-20T01:42:00;28.45;;;16.30;;
78820;SDS011;68171;13.882;99.692;2023-12-20T01:43:07;25.42;;;16.17;;
78820;SDS011;68171;13.882;99.692;2023-12-20T01:44:13;27.75;;;16.38;;
78820;SDS011;68171;13.882;99.692;2023-12-20T01:45:19;23.52;;;15.48;;
78820;SDS011;68171;13.882;99.692;2023-12-20T01:46:25;22.98;;;14.80;;
78820;SDS011;68171;13.882;99.692;2023-12-20T01:47:32;24.42;;;17.08;;
78820;SDS011;68171;13.882;99.692;2023-12-20T01:48:37;20.00;;;15.45;;
78820;SDS011;68171;13.882;99.692;2023-12-20T01:49:44;21.63;;;15.25;;
78820;SDS011;68171;13.882;99.692;2023-12-20T01:50:49;21.67;;;15.57;;
78820;SDS011;68171;13.882;99.692;2023-12-20T01:51:56;23.60;;;15.60;;
78820;SDS011;68171;13.882;99.692;2023-12-20T01:53:02;19.35;;;14.55;;
78820;SDS011;68171;13.882;99.692;2023-12-20T01:54:10;20.27;;;13.82;;
78820;SDS011;68171;13.882;99.692;2023-12-20T01:55:15;18.27;;;12.80;;
78820;SDS011;68171;13.882;99.692;2023-12-20T01:56:22;18.98;;;12.52;;
78820;SDS011;68171;13.882;99.692;2023-12-20T01:57:29;19.70;;;14.60;;
78820;SDS011;68171;13.882;99.692;2023-12-20T01:58:37;20.20;;;13.70;;
78820;SDS011;68171;13.882;99.692;2023-12-20T01:59:43;17.73;;;13.32;;
78820;SDS011;68171;13.882;99.692;2023-12-20T02:00:50;18.70;;;11.45;;
78820;SDS011;68171;13.882;99.692;2023-12-20T02:01:55;17.57;;;12.00;;
78820;SDS011;68171;13.882;99.692;2023-12-20T02:03:02;18.48;;;12.07;;
78820;SDS011;68171;13.882;99.692;2023-12-20T02:04:08;17.73;;;12.18;;
78820;SDS011;68171;13.882;99.692;2023-12-20T02:05:15;23.77;;;12.85;;
78820;SDS011;68171;13.882;99.692;2023-12-20T02:06:20;20.73;;;13.82;;
78820;SDS011;68171;13.882;99.692;2023-12-20T02:07:28;19.05;;;13.07;;
78820;SDS011;68171;13.882;99.692;2023-12-20T02:08:34;25.75;;;11.70;;
78820;SDS011;68171;13.882;99.692;2023-12-20T02:09:40;22.73;;;12.80;;
78820;SDS011;68171;13.882;99.692;2023-12-20T02:10:47;17.60;;;12.15;;
78820;SDS011;68171;13.882;99.692;2023-12-20T02:11:54;18.17;;;12.45;;
78820;SDS011;68171;13.882;99.692;2023-12-20T02:13:01;19.83;;;12.00;;
78820;SDS011;68171;13.882;99.692;2023-12-20T02:14:08;17.08;;;12.13;;
78820;SDS011;68171;13.882;99.692;2023-12-20T02:15:13;16.30;;;11.73;;
78820;SDS011;68171;13.882;99.692;2023-12-20T02:16:20;19.23;;;11.48;;
78820;SDS011;68171;13.882;99.692;2023-12-20T02:17:26;20.10;;;12.13;;
78820;SDS011;68171;13.882;99.692;2023-12-20T02:18:33;15.32;;;11.25;;
78820;SDS011;68171;13.882;99.692;2023-12-20T02:19:39;20.88;;;14.23;;
78820;SDS011;68171;13.882;99.692;2023-12-20T02:20:46;19.80;;;13.65;;
78820;SDS011;68171;13.882;99.692;2023-12-20T02:23:16;17.35;;;11.60;;
78820;SDS011;68171;13.882;99.692;2023-12-20T02:24:21;15.70;;;9.70;;
78820;SDS011;68171;13.882;99.692;2023-12-20T02:25:28;17.05;;;9.80;;
78820;SDS011;68171;13.882;99.692;2023-12-20T02:26:33;13.93;;;9.48;;
78820;SDS011;68171;13.882;99.692;2023-12-20T02:27:40;21.40;;;11.20;;
78820;SDS011;68171;13.882;99.692;2023-12-20T02:28:46;16.48;;;9.98;;
78820;SDS011;68171;13.882;99.692;2023-12-20T02:29:53;17.02;;;10.55;;
78820;SDS011;68171;13.882;99.692;2023-12-20T02:30:58;18.55;;;10.63;;
78820;SDS011;68171;13.882;99.692;2023-12-20T02:32:05;15.63;;;9.90;;
78820;SDS011;68171;13.882;99.692;2023-12-20T02:33:11;19.02;;;11.65;;
78820;SDS011;68171;13.882;99.692;2023-12-20T02:34:18;16.77;;;10.75;;
78820;SDS011;68171;13.882;99.692;2023-12-20T02:35:24;19.73;;;10.40;;
78820;SDS011;68171;13.882;99.692;2023-12-20T02:36:30;19.88;;;11.65;;
78820;SDS011;68171;13.882;99.692;2023-12-20T02:37:37;16.67;;;10.55;;
78820;SDS011;68171;13.882;99.692;2023-12-20T02:38:44;18.05;;;10.98;;
78820;SDS011;68171;13.882;99.692;2023-12-20T02:39:50;18.13;;;10.30;;
78820;SDS011;68171;13.882;99.692;2023-12-20T02:40:57;14.70;;;10.32;;
78820;SDS011;68171;13.882;99.692;2023-12-20T02:42:03;18.27;;;11.35;;
78820;SDS011;68171;13.882;99.692;2023-12-20T02:43:09;22.02;;;10.55;;
78820;SDS011;68171;13.882;99.692;2023-12-20T02:44:15;16.95;;;10.82;;
78820;SDS011;68171;13.882;99.692;2023-12-20T02:45:20;17.88;;;11.25;;
78820;SDS011;68171;13.882;99.692;2023-12-20T02:46:27;22.30;;;10.83;;
78820;SDS011;68171;13.882;99.692;2023-12-20T02:47:32;21.20;;;10.55;;
78820;SDS011;68171;13.882;99.692;2023-12-20T02:48:39;24.77;;;12.30;;
78820;SDS011;68171;13.882;99.692;2023-12-20T02:49:45;24.30;;;12.30;;
78820;SDS011;68171;13.882;99.692;2023-12-20T02:50:52;16.98;;;11.98;;
78820;SDS011;68171;13.882;99.692;2023-12-20T02:51:57;21.35;;;11.75;;
78820;SDS011;68171;13.882;99.692;2023-12-20T02:53:06;17.50;;;11.02;;
78820;SDS011;68171;13.882;99.692;2023-12-20T02:54:11;14.00;;;10.73;;
78820;SDS011;68171;13.882;99.692;2023-12-20T02:55:18;15.23;;;10.10;;
78820;SDS011;68171;13.882;99.692;2023-12-20T02:56:23;21.15;;;9.73;;
78820;SDS011;68171;13.882;99.692;2023-12-20T02:57:30;15.83;;;9.17;;
78820;SDS011;68171;13.882;99.692;2023-12-20T02:58:37;20.77;;;10.13;;
78820;SDS011;68171;13.882;99.692;2023-12-20T02:59:43;13.40;;;9.52;;
78820;SDS011;68171;13.882;99.692;2023-12-20T03:00:49;16.63;;;10.52;;
78820;SDS011;68171;13.882;99.692;2023-12-20T03:01:55;26.40;;;10.20;;
78820;SDS011;68171;13.882;99.692;2023-12-20T03:03:01;21.05;;;11.13;;
78820;SDS011;68171;13.882;99.692;2023-12-20T03:04:08;16.20;;;9.70;;
78820;SDS011;68171;13.882;99.692;2023-12-20T03:05:14;15.98;;;9.93;;
78820;SDS011;68171;13.882;99.692;2023-12-20T03:06:20;15.73;;;10.40;;
78820;SDS011;68171;13.882;99.692;2023-12-20T03:07:26;16.20;;;10.35;;
78820;SDS011;68171;13.882;99.692;2023-12-20T03:08:34;23.50;;;11.20;;
78820;SDS011;68171;13.882;99.692;2023-12-20T03:09:40;14.77;;;9.80;;
78820;SDS011;68171;13.882;99.692;2023-12-20T03:11:07;16.95;;;10.40;;
78820;SDS011;68171;13.882;99.692;2023-12-20T03:12:12;17.65;;;10.90;;
78820;SDS011;68171;13.882;99.692;2023-12-20T03:13:19;17.00;;;10.20;;
78820;SDS011;68171;13.882;99.692;2023-12-20T03:14:24;17.83;;;9.68;;
78820;SDS011;68171;13.882;99.692;2023-12-20T03:15:31;16.23;;;8.90;;
78820;SDS011;68171;13.882;99.692;2023-12-20T03:16:36;14.05;;;8.98;;
78820;SDS011;68171;13.882;99.692;2023-12-20T03:17:43;16.33;;;10.80;;
78820;SDS011;68171;13.882;99.692;2023-12-20T03:18:49;16.95;;;11.02;;
78820;SDS011;68171;13.882;99.692;2023-12-20T03:19:56;16.83;;;9.70;;
78820;SDS011;68171;13.882;99.692;2023-12-20T03:21:01;16.25;;;10.38;;
78820;SDS011;68171;13.882;99.692;2023-12-20T03:22:09;16.75;;;10.27;;
78820;SDS011;68171;13.882;99.692;2023-12-20T03:23:14;21.15;;;12.02;;
78820;SDS011;68171;13.882;99.692;2023-12-20T03:24:23;14.50;;;9.90;;
78820;SDS011;68171;13.882;99.692;2023-12-20T03:25:28;19.67;;;11.02;;
78820;SDS011;68171;13.882;99.692;2023-12-20T03:26:34;17.60;;;11.88;;
78820;SDS011;68171;13.882;99.692;2023-12-20T03:27:40;17.10;;;10.73;;
78820;SDS011;68171;13.882;99.692;2023-12-20T03:28:47;21.70;;;11.32;;
78820;SDS011;68171;13.882;99.692;2023-12-20T03:29:52;14.88;;;9.65;;
78820;SDS011;68171;13.882;99.692;2023-12-20T03:30:59;17.63;;;10.17;;
78820;SDS011;68171;13.882;99.692;2023-12-20T03:32:06;17.75;;;10.73;;
78820;SDS011;68171;13.882;99.692;2023-12-20T03:33:13;17.42;;;10.88;;
78820;SDS011;68171;13.882;99.692;2023-12-20T03:34:18;18.45;;;12.80;;
78820;SDS011;68171;13.882;99.692;2023-12-20T03:35:25;25.90;;;12.88;;
78820;SDS011;68171;13.882;99.692;2023-12-20T03:36:30;18.58;;;11.65;;
78820;SDS011;68171;13.882;99.692;2023-12-20T03:37:37;17.02;;;10.45;;
78820;SDS011;68171;13.882;99.692;2023-12-20T03:38:42;17.40;;;10.98;;
78820;SDS011;68171;13.882;99.692;2023-12-20T03:39:51;14.75;;;10.75;;
78820;SDS011;68171;13.882;99.692;2023-12-20T03:40:59;23.33;;;11.68;;
78820;SDS011;68171;13.882;99.692;2023-12-20T03:42:05;21.30;;;11.20;;
78820;SDS011;68171;13.882;99.692;2023-12-20T03:43:11;18.73;;;11.63;;
78820;SDS011;68171;13.882;99.692;2023-12-20T03:44:17;19.73;;;11.32;;
78820;SDS011;68171;13.882;99.692;2023-12-20T03:45:24;18.45;;;11.68;;
78820;SDS011;68171;13.882;99.692;2023-12-20T03:46:30;21.95;;;11.52;;
78820;SDS011;68171;13.882;99.692;2023-12-20T03:47:36;22.98;;;10.88;;
78820;SDS011;68171;13.882;99.692;2023-12-20T03:48:42;15.55;;;9.70;;
78820;SDS011;68171;13.882;99.692;2023-12-20T03:49:48;20.30;;;10.50;;
78820;SDS011;68171;13.882;99.692;2023-12-20T03:50:54;17.40;;;10.55;;
78820;SDS011;68171;13.882;99.692;2023-12-20T03:52:00;17.17;;;11.38;;
78820;SDS011;68171;13.882;99.692;2023-12-20T03:53:06;16.57;;;10.40;;
78820;SDS011;68171;13.882;99.692;2023-12-20T03:54:12;25.92;;;10.30;;
78820;SDS011;68171;13.882;99.692;2023-12-20T03:55:20;23.05;;;9.52;;
78820;SDS011;68171;13.882;99.692;2023-12-20T03:56:25;13.23;;;9.52;;
78820;SDS011;68171;13.882;99.692;2023-12-20T03:57:32;14.30;;;8.98;;
78820;SDS011;68171;13.882;99.692;2023-12-20T03:58:37;14.80;;;9.63;;
78820;SDS011;68171;13.882;99.692;2023-12-20T03:59:44;18.27;;;9.82;;
78820;SDS011;68171;13.882;99.692;2023-12-20T04:00:50;16.90;;;9.40;;
78820;SDS011;68171;13.882;99.692;2023-12-20T04:01:57;17.52;;;10.27;;
78820;SDS011;68171;13.882;99.692;2023-12-20T04:03:02;18.50;;;9.93;;
78820;SDS011;68171;13.882;99.692;2023-12-20T04:04:09;17.73;;;9.73;;
78820;SDS011;68171;13.882;99.692;2023-12-20T04:05:15;16.10;;;9.85;;
78820;SDS011;68171;13.882;99.692;2023-12-20T04:06:21;20.08;;;11.02;;
78820;SDS011;68171;13.882;99.692;2023-12-20T04:07:27;24.05;;;10.40;;
78820;SDS011;68171;13.882;99.692;2023-12-20T04:08:33;18.17;;;10.60;;
78820;SDS011;68171;13.882;99.692;2023-12-20T04:09:40;19.33;;;9.60;;
78820;SDS011;68171;13.882;99.692;2023-12-20T04:10:48;15.35;;;9.73;;
78820;SDS011;68171;13.882;99.692;2023-12-20T04:11:54;17.25;;;9.60;;
78820;SDS011;68171;13.882;99.692;2023-12-20T04:13:00;14.90;;;8.98;;
78820;SDS011;68171;13.882;99.692;2023-12-20T04:14:06;15.80;;;9.70;;
78820;SDS011;68171;13.882;99.692;2023-12-20T04:15:13;20.03;;;8.97;;
78820;SDS011;68171;13.882;99.692;2023-12-20T04:16:19;15.15;;;9.10;;
78820;SDS011;68171;13.882;99.692;2023-12-20T04:17:25;16.63;;;10.13;;
78820;SDS011;68171;13.882;99.692;2023-12-20T04:18:31;14.95;;;9.68;;
78820;SDS011;68171;13.882;99.692;2023-12-20T04:19:37;18.33;;;10.55;;
78820;SDS011;68171;13.882;99.692;2023-12-20T04:20:43;15.50;;;10.57;;
78820;SDS011;68171;13.882;99.692;2023-12-20T04:21:50;13.27;;;9.15;;
78820;SDS011;68171;13.882;99.692;2023-12-20T04:22:55;12.98;;;8.07;;
78820;SDS011;68171;13.882;99.692;2023-12-20T04:24:02;14.05;;;8.43;;
78820;SDS011;68171;13.882;99.692;2023-12-20T04:25:08;13.52;;;8.95;;
78820;SDS011;68171;13.882;99.692;2023-12-20T04:26:16;18.57;;;9.47;;
78820;SDS011;68171;13.882;99.692;2023-12-20T04:27:22;14.20;;;9.80;;
78820;SDS011;68171;13.882;99.692;2023-12-20T04:28:28;13.35;;;9.02;;
78820;SDS011;68171;13.882;99.692;2023-12-20T04:29:34;13.98;;;8.63;;
78820;SDS011;68171;13.882;99.692;2023-12-20T04:30:40;12.15;;;7.75;;
78820;SDS011;68171;13.882;99.692;2023-12-20T04:31:46;12.95;;;7.93;;
78820;SDS011;68171;13.882;99.692;2023-12-20T04:32:54;13.45;;;7.32;;
78820;SDS011;68171;13.882;99.692;2023-12-20T04:34:00;13.88;;;8.13;;
78820;SDS011;68171;13.882;99.692;2023-12-20T04:35:07;12.48;;;8.10;;
78820;SDS011;68171;13.882;99.692;2023-12-20T04:36:12;14.00;;;8.25;;
78820;SDS011;68171;13.882;99.692;2023-12-20T04:37:19;16.20;;;8.37;;
78820;SDS011;68171;13.882;99.692;2023-12-20T04:38:24;15.35;;;8.27;;
78820;SDS011;68171;13.882;99.692;2023-12-20T04:39:31;14.05;;;8.40;;
78820;SDS011;68171;13.882;99.692;2023-12-20T04:40:36;21.88;;;9.32;;
78820;SDS011;68171;13.882;99.692;2023-12-20T04:41:46;14.75;;;8.13;;
78820;SDS011;68171;13.882;99.692;2023-12-20T04:42:51;15.48;;;7.97;;
78820;SDS011;68171;13.882;99.692;2023-12-20T04:43:58;14.10;;;7.45;;
78820;SDS011;68171;13.882;99.692;2023-12-20T04:45:04;15.00;;;6.50;;
78820;SDS011;68171;13.882;99.692;2023-12-20T04:46:10;13.60;;;6.82;;
78820;SDS011;68171;13.882;99.692;2023-12-20T04:47:16;12.88;;;7.32;;
78820;SDS011;68171;13.882;99.692;2023-12-20T04:48:22;11.60;;;6.57;;
78820;SDS011;68171;13.882;99.692;2023-12-20T04:49:28;9.02;;;6.35;;
78820;SDS011;68171;13.882;99.692;2023-12-20T04:50:34;12.23;;;6.00;;
78820;SDS011;68171;13.882;99.692;2023-12-20T04:51:40;12.80;;;6.60;;
78820;SDS011;68171;13.882;99.692;2023-12-20T04:52:46;10.90;;;6.00;;
78820;SDS011;68171;13.882;99.692;2023-12-20T04:53:52;9.63;;;5.53;;
78820;SDS011;68171;13.882;99.692;2023-12-20T04:54:58;14.80;;;5.40;;
78820;SDS011;68171;13.882;99.692;2023-12-20T04:56:04;10.60;;;5.38;;
78820;SDS011;68171;13.882;99.692;2023-12-20T04:57:12;11.30;;;6.35;;
78820;SDS011;68171;13.882;99.692;2023-12-20T04:58:18;12.27;;;6.07;;
78820;SDS011;68171;13.882;99.692;2023-12-20T04:59:24;14.40;;;6.60;;
78820;SDS011;68171;13.882;99.692;2023-12-20T05:00:30;9.70;;;5.95;;
78820;SDS011;68171;13.882;99.692;2023-12-20T05:01:36;8.40;;;5.25;;
78820;SDS011;68171;13.882;99.692;2023-12-20T05:02:42;9.90;;;5.68;;
78820;SDS011;68171;13.882;99.692;2023-12-20T05:03:48;8.35;;;4.78;;
78820;SDS011;68171;13.882;99.692;2023-12-20T05:04:54;7.90;;;5.30;;
78820;SDS011;68171;13.882;99.692;2023-12-20T05:06:00;9.75;;;4.80;;
78820;SDS011;68171;13.882;99.692;2023-12-20T05:07:07;7.25;;;4.68;;
78820;SDS011;68171;13.882;99.692;2023-12-20T05:08:12;9.02;;;5.32;;
78820;SDS011;68171;13.882;99.692;2023-12-20T05:09:19;10.40;;;5.22;;
78820;SDS011;68171;13.882;99.692;2023-12-20T05:10:24;7.97;;;4.90;;
78820;SDS011;68171;13.882;99.692;2023-12-20T05:11:31;8.15;;;4.82;;
78820;SDS011;68171;13.882;99.692;2023-12-20T05:12:38;8.00;;;5.13;;
78820;SDS011;68171;13.882;99.692;2023-12-20T05:13:45;9.13;;;5.05;;
78820;SDS011;68171;13.882;99.692;2023-12-20T05:14:51;7.68;;;4.50;;
78820;SDS011;68171;13.882;99.692;2023-12-20T05:15:58;8.45;;;4.95;;
78820;SDS011;68171;13.882;99.692;2023-12-20T05:17:03;6.60;;;4.25;;
78820;SDS011;68171;13.882;99.692;2023-12-20T05:18:10;5.97;;;4.25;;
78820;SDS011;68171;13.882;99.692;2023-12-20T05:19:15;7.20;;;4.20;;
78820;SDS011;68171;13.882;99.692;2023-12-20T05:20:22;9.88;;;4.40;;
78820;SDS011;68171;13.882;99.692;2023-12-20T05:21:27;6.93;;;3.97;;
78820;SDS011;68171;13.882;99.692;2023-12-20T05:22:34;9.77;;;4.57;;
78820;SDS011;68171;13.882;99.692;2023-12-20T05:23:39;8.88;;;4.45;;
78820;SDS011;68171;13.882;99.692;2023-12-20T05:24:46;7.75;;;4.13;;
78820;SDS011;68171;13.882;99.692;2023-12-20T05:25:51;9.25;;;4.57;;
78820;SDS011;68171;13.882;99.692;2023-12-20T05:26:58;8.38;;;4.97;;
78820;SDS011;68171;13.882;99.692;2023-12-20T05:28:05;11.63;;;5.00;;
78820;SDS011;68171;13.882;99.692;2023-12-20T05:29:12;7.82;;;4.60;;
78820;SDS011;68171;13.882;99.692;2023-12-20T05:30:17;7.40;;;4.32;;
78820;SDS011;68171;13.882;99.692;2023-12-20T05:31:24;6.70;;;4.22;;
78820;SDS011;68171;13.882;99.692;2023-12-20T05:32:29;8.07;;;4.00;;
78820;SDS011;68171;13.882;99.692;2023-12-20T05:33:36;6.55;;;4.03;;
78820;SDS011;68171;13.882;99.692;2023-12-20T05:34:41;8.23;;;4.30;;
78820;SDS011;68171;13.882;99.692;2023-12-20T05:35:48;11.52;;;4.13;;
78820;SDS011;68171;13.882;99.692;2023-12-20T05:36:53;6.30;;;3.90;;
78820;SDS011;68171;13.882;99.692;2023-12-20T05:38:00;6.32;;;3.35;;
78820;SDS011;68171;13.882;99.692;2023-12-20T05:39:05;7.10;;;3.70;;
78820;SDS011;68171;13.882;99.692;2023-12-20T05:40:12;5.80;;;3.70;;
78820;SDS011;68171;13.882;99.692;2023-12-20T05:41:18;5.35;;;3.88;;
78820;SDS011;68171;13.882;99.692;2023-12-20T05:42:25;6.75;;;4.20;;
78820;SDS011;68171;13.882;99.692;2023-12-20T05:43:32;8.43;;;4.20;;
78820;SDS011;68171;13.882;99.692;2023-12-20T05:44:38;7.57;;;3.93;;
78820;SDS011;68171;13.882;99.692;2023-12-20T05:45:44;6.93;;;4.30;;
78820;SDS011;68171;13.882;99.692;2023-12-20T05:46:50;8.82;;;3.75;;
78820;SDS011;68171;13.882;99.692;2023-12-20T05:47:56;10.40;;;3.85;;
78820;SDS011;68171;13.882;99.692;2023-12-20T05:49:02;6.78;;;3.38;;
78820;SDS011;68171;13.882;99.692;2023-12-20T05:50:08;5.32;;;3.38;;
78820;SDS011;68171;13.882;99.692;2023-12-20T05:51:14;7.80;;;3.92;;
78820;SDS011;68171;13.882;99.692;2023-12-20T05:52:20;9.65;;;5.10;;
78820;SDS011;68171;13.882;99.692;2023-12-20T05:53:26;6.50;;;4.15;;
78820;SDS011;68171;13.882;99.692;2023-12-20T05:54:32;9.13;;;3.93;;
78820;SDS011;68171;13.882;99.692;2023-12-20T05:55:38;12.03;;;4.47;;
78820;SDS011;68171;13.882;99.692;2023-12-20T05:56:44;7.45;;;3.70;;
78820;SDS011;68171;13.882;99.692;2023-12-20T05:57:50;7.72;;;3.45;;
78820;SDS011;68171;13.882;99.692;2023-12-20T05:58:57;9.75;;;3.50;;
78820;SDS011;68171;13.882;99.692;2023-12-20T06:00:04;5.55;;;3.38;;
78820;SDS011;68171;13.882;99.692;2023-12-20T06:01:10;7.43;;;3.88;;
78820;SDS011;68171;13.882;99.692;2023-12-20T06:02:17;6.45;;;3.53;;
78820;SDS011;68171;13.882;99.692;2023-12-20T06:03:22;8.02;;;3.55;;
78820;SDS011;68171;13.882;99.692;2023-12-20T06:04:29;6.88;;;3.30;;
78820;SDS011;68171;13.882;99.692;2023-12-20T06:05:34;5.97;;;3.03;;
78820;SDS011;68171;13.882;99.692;2023-12-20T06:06:41;6.17;;;3.00;;
78820;SDS011;68171;13.882;99.692;2023-12-20T06:07:47;6.90;;;3.38;;
78820;SDS011;68171;13.882;99.692;2023-12-20T06:08:54;10.93;;;3.67;;
78820;SDS011;68171;13.882;99.692;2023-12-20T06:09:59;7.85;;;3.33;;
78820;SDS011;68171;13.882;99.692;2023-12-20T06:11:06;8.32;;;3.50;;
78820;SDS011;68171;13.882;99.692;2023-12-20T06:12:11;6.90;;;3.67;;
78820;SDS011;68171;13.882;99.692;2023-12-20T06:13:18;7.75;;;4.43;;
78820;SDS011;68171;13.882;99.692;2023-12-20T06:14:25;9.05;;;4.88;;
78820;SDS011;68171;13.882;99.692;2023-12-20T06:15:31;4.45;;;2.85;;
78820;SDS011;68171;13.882;99.692;2023-12-20T06:16:37;5.37;;;3.07;;
78820;SDS011;68171;13.882;99.692;2023-12-20T06:17:43;5.03;;;3.37;;
78820;SDS011;68171;13.882;99.692;2023-12-20T06:18:50;8.40;;;3.67;;
78820;SDS011;68171;13.882;99.692;2023-12-20T06:19:57;5.47;;;3.33;;
78820;SDS011;68171;13.882;99.692;2023-12-20T06:21:03;13.27;;;5.05;;
78820;SDS011;68171;13.882;99.692;2023-12-20T06:22:11;6.68;;;3.67;;
78820;SDS011;68171;13.882;99.692;2023-12-20T06:23:17;4.40;;;2.85;;
78820;SDS011;68171;13.882;99.692;2023-12-20T06:24:23;6.53;;;3.08;;
78820;SDS011;68171;13.882;99.692;2023-12-20T06:25:31;4.90;;;2.70;;
78820;SDS011;68171;13.882;99.692;2023-12-20T06:26:38;4.25;;;2.63;;